sensor_id;sensor_type;location;lat;lon;timestamp;P1;P2;P0
60245;PMS5003;46107;53.356;-1.524;2023-07-13T00:01:39;6;5;
60245;PMS5003;46107;53.356;-1.524;2023-07-13T00:04:06;8;6;
60245;PMS5003;46107;53.356;-1.524;2023-07-13T00:06:34;7;6;
60245;PMS5003;46107;53.356;-1.524;2023-07-13T00:09:01;6;6;
60245;PMS5003;46107;53.356;-1.524;2023-07-13T00:11:29;5;5;
60245;PMS5003;46107;53.356;-1.524;2023-07-13T00:13:56;6;5;
60245;PMS5003;46107;53.356;-1.524;2023-07-13T00:16:24;9;5;
60245;PMS5003;46107;53.356;-1.524;2023-07-13T00:18:52;4;4;
60245;PMS5003;46107;53.356;-1.524;2023-07-13T00:21:19;8;6;
60245;PMS5003;46107;53.356;-1.524;2023-07-13T00:23:46;8;7;
60245;PMS5003;46107;53.356;-1.524;2023-07-13T00:26:15;3;3;
60245;PMS5003;46107;53.356;-1.524;2023-07-13T00:28:42;3;3;
60245;PMS5003;46107;53.356;-1.524;2023-07-13T00:31:10;4;4;
60245;PMS5003;46107;53.356;-1.524;2023-07-13T00:33:39;7;6;
60245;PMS5003;46107;53.356;-1.524;2023-07-13T00:36:11;7;7;
60245;PMS5003;46107;53.356;-1.524;2023-07-13T00:38:39;8;6;
60245;PMS5003;46107;53.356;-1.524;2023-07-13T00:41:07;6;6;
60245;PMS5003;46107;53.356;-1.524;2023-07-13T00:43:36;7;7;
60245;PMS5003;46107;53.356;-1.524;2023-07-13T00:46:11;5;5;
60245;PMS5003;46107;53.356;-1.524;2023-07-13T00:48:41;4;4;
60245;PMS5003;46107;53.356;-1.524;2023-07-13T00:51:12;7;6;
60245;PMS5003;46107;53.356;-1.524;2023-07-13T00:53:42;10;6;
60245;PMS5003;46107;53.356;-1.524;2023-07-13T00:56:10;6;6;
60245;PMS5003;46107;53.356;-1.524;2023-07-13T00:58:38;10;8;
60245;PMS5003;46107;53.356;-1.524;2023-07-13T01:01:06;9;9;
60245;PMS5003;46107;53.356;-1.524;2023-07-13T01:03:34;7;7;
60245;PMS5003;46107;53.356;-1.524;2023-07-13T01:06:02;9;8;
60245;PMS5003;46107;53.356;-1.524;2023-07-13T01:08:30;8;6;
60245;PMS5003;46107;53.356;-1.524;2023-07-13T01:10:57;7;6;
60245;PMS5003;46107;53.356;-1.524;2023-07-13T01:13:25;5;5;
60245;PMS5003;46107;53.356;-1.524;2023-07-13T01:15:54;6;6;
60245;PMS5003;46107;53.356;-1.524;2023-07-13T01:18:24;9;7;
60245;PMS5003;46107;53.356;-1.524;2023-07-13T01:20:54;9;7;
60245;PMS5003;46107;53.356;-1.524;2023-07-13T01:23:23;7;7;
60245;PMS5003;46107;53.356;-1.524;2023-07-13T01:25:51;7;6;
60245;PMS5003;46107;53.356;-1.524;2023-07-13T01:28:19;11;7;
60245;PMS5003;46107;53.356;-1.524;2023-07-13T01:30:47;5;5;
60245;PMS5003;46107;53.356;-1.524;2023-07-13T01:33:15;4;4;
60245;PMS5003;46107;53.356;-1.524;2023-07-13T01:35:44;8;6;
60245;PMS5003;46107;53.356;-1.524;2023-07-13T01:38:17;6;6;
60245;PMS5003;46107;53.356;-1.524;2023-07-13T01:40:47;12;11;
60245;PMS5003;46107;53.356;-1.524;2023-07-13T01:43:15;7;7;
60245;PMS5003;46107;53.356;-1.524;2023-07-13T01:45:43;8;8;
60245;PMS5003;46107;53.356;-1.524;2023-07-13T01:48:11;15;15;
60245;PMS5003;46107;53.356;-1.524;2023-07-13T01:50:39;15;13;
60245;PMS5003;46107;53.356;-1.524;2023-07-13T01:53:08;13;13;
60245;PMS5003;46107;53.356;-1.524;2023-07-13T01:55:35;12;10;
60245;PMS5003;46107;53.356;-1.524;2023-07-13T01:58:04;16;16;
60245;PMS5003;46107;53.356;-1.524;2023-07-13T02:00:32;11;9;
60245;PMS5003;46107;53.356;-1.524;2023-07-13T02:03:00;14;12;
60245;PMS5003;46107;53.356;-1.524;2023-07-13T02:05:28;11;10;
60245;PMS5003;46107;53.356;-1.524;2023-07-13T02:07:55;12;12;
60245;PMS5003;46107;53.356;-1.524;2023-07-13T02:10:22;9;9;
60245;PMS5003;46107;53.356;-1.524;2023-07-13T02:12:50;13;11;
60245;PMS5003;46107;53.356;-1.524;2023-07-13T02:15:17;14;11;
60245;PMS5003;46107;53.356;-1.524;2023-07-13T02:17:45;14;12;
60245;PMS5003;46107;53.356;-1.524;2023-07-13T02:20:13;9;9;
60245;PMS5003;46107;53.356;-1.524;2023-07-13T02:22:40;14;13;
60245;PMS5003;46107;53.356;-1.524;2023-07-13T02:25:08;13;11;
60245;PMS5003;46107;53.356;-1.524;2023-07-13T02:27:35;12;10;
60245;PMS5003;46107;53.356;-1.524;2023-07-13T02:30:03;13;13;
60245;PMS5003;46107;53.356;-1.524;2023-07-13T02:32:31;11;9;
60245;PMS5003;46107;53.356;-1.524;2023-07-13T02:35:00;10;8;
60245;PMS5003;46107;53.356;-1.524;2023-07-13T02:37:27;14;12;
60245;PMS5003;46107;53.356;-1.524;2023-07-13T02:39:55;11;10;
60245;PMS5003;46107;53.356;-1.524;2023-07-13T02:42:23;10;10;
60245;PMS5003;46107;53.356;-1.524;2023-07-13T02:44:50;17;13;
60245;PMS5003;46107;53.356;-1.524;2023-07-13T02:47:19;17;13;
60245;PMS5003;46107;53.356;-1.524;2023-07-13T02:49:46;14;14;
60245;PMS5003;46107;53.356;-1.524;2023-07-13T02:52:15;15;12;
60245;PMS5003;46107;53.356;-1.524;2023-07-13T02:54:43;13;12;
60245;PMS5003;46107;53.356;-1.524;2023-07-13T02:57:11;15;14;
60245;PMS5003;46107;53.356;-1.524;2023-07-13T02:59:40;14;11;
60245;PMS5003;46107;53.356;-1.524;2023-07-13T03:02:08;14;13;
60245;PMS5003;46107;53.356;-1.524;2023-07-13T03:04:35;13;13;
60245;PMS5003;46107;53.356;-1.524;2023-07-13T03:07:04;13;11;
60245;PMS5003;46107;53.356;-1.524;2023-07-13T03:09:33;11;11;
60245;PMS5003;46107;53.356;-1.524;2023-07-13T03:12:01;12;11;
60245;PMS5003;46107;53.356;-1.524;2023-07-13T03:14:29;11;11;
60245;PMS5003;46107;53.356;-1.524;2023-07-13T03:16:56;9;8;
60245;PMS5003;46107;53.356;-1.524;2023-07-13T03:19:24;17;13;
60245;PMS5003;46107;53.356;-1.524;2023-07-13T03:21:52;12;11;
60245;PMS5003;46107;53.356;-1.524;2023-07-13T03:24:20;10;10;
60245;PMS5003;46107;53.356;-1.524;2023-07-13T03:26:47;13;11;
60245;PMS5003;46107;53.356;-1.524;2023-07-13T03:29:15;12;10;
60245;PMS5003;46107;53.356;-1.524;2023-07-13T03:31:42;12;12;
60245;PMS5003;46107;53.356;-1.524;2023-07-13T03:34:10;17;14;
60245;PMS5003;46107;53.356;-1.524;2023-07-13T03:36:38;9;9;
60245;PMS5003;46107;53.356;-1.524;2023-07-13T03:39:05;12;12;
60245;PMS5003;46107;53.356;-1.524;2023-07-13T03:41:33;15;13;
60245;PMS5003;46107;53.356;-1.524;2023-07-13T03:44:00;12;11;
60245;PMS5003;46107;53.356;-1.524;2023-07-13T03:46:28;14;12;
60245;PMS5003;46107;53.356;-1.524;2023-07-13T03:48:55;15;14;
60245;PMS5003;46107;53.356;-1.524;2023-07-13T03:51:23;16;14;
60245;PMS5003;46107;53.356;-1.524;2023-07-13T03:53:51;12;10;
60245;PMS5003;46107;53.356;-1.524;2023-07-13T03:56:18;11;10;
60245;PMS5003;46107;53.356;-1.524;2023-07-13T03:58:46;13;11;
60245;PMS5003;46107;53.356;-1.524;2023-07-13T04:01:15;12;12;
60245;PMS5003;46107;53.356;-1.524;2023-07-13T04:03:44;10;10;
60245;PMS5003;46107;53.356;-1.524;2023-07-13T04:06:14;14;11;
60245;PMS5003;46107;53.356;-1.524;2023-07-13T04:08:43;11;11;
60245;PMS5003;46107;53.356;-1.524;2023-07-13T04:11:10;16;14;
60245;PMS5003;46107;53.356;-1.524;2023-07-13T04:13:38;8;8;
60245;PMS5003;46107;53.356;-1.524;2023-07-13T04:16:06;12;11;
60245;PMS5003;46107;53.356;-1.524;2023-07-13T04:18:33;11;11;
60245;PMS5003;46107;53.356;-1.524;2023-07-13T04:21:01;16;13;
60245;PMS5003;46107;53.356;-1.524;2023-07-13T04:23:28;14;12;
60245;PMS5003;46107;53.356;-1.524;2023-07-13T04:25:56;14;12;
60245;PMS5003;46107;53.356;-1.524;2023-07-13T04:28:23;12;12;
60245;PMS5003;46107;53.356;-1.524;2023-07-13T04:30:52;11;11;
60245;PMS5003;46107;53.356;-1.524;2023-07-13T04:33:19;11;11;
60245;PMS5003;46107;53.356;-1.524;2023-07-13T04:35:47;11;11;
60245;PMS5003;46107;53.356;-1.524;2023-07-13T04:38:15;18;14;
60245;PMS5003;46107;53.356;-1.524;2023-07-13T04:40:42;12;11;
60245;PMS5003;46107;53.356;-1.524;2023-07-13T04:43:11;13;11;
60245;PMS5003;46107;53.356;-1.524;2023-07-13T04:45:39;12;11;
60245;PMS5003;46107;53.356;-1.524;2023-07-13T04:48:07;12;10;
60245;PMS5003;46107;53.356;-1.524;2023-07-13T04:50:35;13;11;
60245;PMS5003;46107;53.356;-1.524;2023-07-13T04:53:04;13;12;
60245;PMS5003;46107;53.356;-1.524;2023-07-13T04:55:32;15;11;
60245;PMS5003;46107;53.356;-1.524;2023-07-13T04:58:00;11;11;
60245;PMS5003;46107;53.356;-1.524;2023-07-13T05:00:28;12;11;
60245;PMS5003;46107;53.356;-1.524;2023-07-13T05:02:57;17;15;
60245;PMS5003;46107;53.356;-1.524;2023-07-13T05:05:25;12;12;
60245;PMS5003;46107;53.356;-1.524;2023-07-13T05:07:53;12;11;
60245;PMS5003;46107;53.356;-1.524;2023-07-13T05:10:21;11;10;
60245;PMS5003;46107;53.356;-1.524;2023-07-13T05:12:50;13;12;
60245;PMS5003;46107;53.356;-1.524;2023-07-13T05:15:20;15;15;
60245;PMS5003;46107;53.356;-1.524;2023-07-13T05:17:49;17;17;
60245;PMS5003;46107;53.356;-1.524;2023-07-13T05:20:17;16;16;
60245;PMS5003;46107;53.356;-1.524;2023-07-13T05:22:46;20;19;
60245;PMS5003;46107;53.356;-1.524;2023-07-13T05:25:13;12;12;
60245;PMS5003;46107;53.356;-1.524;2023-07-13T05:27:40;18;17;
60245;PMS5003;46107;53.356;-1.524;2023-07-13T05:30:08;14;14;
60245;PMS5003;46107;53.356;-1.524;2023-07-13T05:32:35;16;16;
60245;PMS5003;46107;53.356;-1.524;2023-07-13T05:35:03;20;17;
60245;PMS5003;46107;53.356;-1.524;2023-07-13T05:37:30;21;21;
60245;PMS5003;46107;53.356;-1.524;2023-07-13T05:39:58;14;14;
60245;PMS5003;46107;53.356;-1.524;2023-07-13T05:42:26;15;15;
60245;PMS5003;46107;53.356;-1.524;2023-07-13T05:44:53;20;18;
60245;PMS5003;46107;53.356;-1.524;2023-07-13T05:47:21;16;16;
60245;PMS5003;46107;53.356;-1.524;2023-07-13T05:49:49;14;14;
60245;PMS5003;46107;53.356;-1.524;2023-07-13T05:52:16;13;13;
60245;PMS5003;46107;53.356;-1.524;2023-07-13T05:54:44;13;12;
60245;PMS5003;46107;53.356;-1.524;2023-07-13T05:57:11;12;12;
60245;PMS5003;46107;53.356;-1.524;2023-07-13T05:59:39;11;10;
60245;PMS5003;46107;53.356;-1.524;2023-07-13T06:02:08;13;12;
60245;PMS5003;46107;53.356;-1.524;2023-07-13T06:04:36;14;14;
60245;PMS5003;46107;53.356;-1.524;2023-07-13T06:07:03;10;9;
60245;PMS5003;46107;53.356;-1.524;2023-07-13T06:09:31;10;9;
60245;PMS5003;46107;53.356;-1.524;2023-07-13T06:11:59;10;10;
60245;PMS5003;46107;53.356;-1.524;2023-07-13T06:14:27;9;9;
60245;PMS5003;46107;53.356;-1.524;2023-07-13T06:16:54;10;10;
60245;PMS5003;46107;53.356;-1.524;2023-07-13T06:19:22;10;10;
60245;PMS5003;46107;53.356;-1.524;2023-07-13T06:21:49;10;10;
60245;PMS5003;46107;53.356;-1.524;2023-07-13T06:24:17;9;9;
60245;PMS5003;46107;53.356;-1.524;2023-07-13T06:26:44;12;12;
60245;PMS5003;46107;53.356;-1.524;2023-07-13T06:29:12;13;12;
60245;PMS5003;46107;53.356;-1.524;2023-07-13T06:31:40;14;9;
60245;PMS5003;46107;53.356;-1.524;2023-07-13T06:34:08;14;13;
60245;PMS5003;46107;53.356;-1.524;2023-07-13T06:36:35;9;9;
60245;PMS5003;46107;53.356;-1.524;2023-07-13T06:39:03;16;13;
60245;PMS5003;46107;53.356;-1.524;2023-07-13T06:41:30;15;14;
60245;PMS5003;46107;53.356;-1.524;2023-07-13T06:43:57;10;9;
60245;PMS5003;46107;53.356;-1.524;2023-07-13T06:46:25;9;9;
60245;PMS5003;46107;53.356;-1.524;2023-07-13T06:48:55;10;8;
60245;PMS5003;46107;53.356;-1.524;2023-07-13T06:51:24;12;12;
60245;PMS5003;46107;53.356;-1.524;2023-07-13T06:53:51;11;11;
60245;PMS5003;46107;53.356;-1.524;2023-07-13T06:56:19;9;8;
60245;PMS5003;46107;53.356;-1.524;2023-07-13T06:58:47;9;9;
60245;PMS5003;46107;53.356;-1.524;2023-07-13T07:01:15;16;16;
60245;PMS5003;46107;53.356;-1.524;2023-07-13T07:03:43;13;12;
60245;PMS5003;46107;53.356;-1.524;2023-07-13T07:06:12;16;14;
60245;PMS5003;46107;53.356;-1.524;2023-07-13T07:08:41;15;14;
60245;PMS5003;46107;53.356;-1.524;2023-07-13T07:11:08;19;17;
60245;PMS5003;46107;53.356;-1.524;2023-07-13T07:13:38;15;15;
60245;PMS5003;46107;53.356;-1.524;2023-07-13T07:16:06;9;9;
60245;PMS5003;46107;53.356;-1.524;2023-07-13T07:18:34;15;13;
60245;PMS5003;46107;53.356;-1.524;2023-07-13T07:21:01;15;13;
60245;PMS5003;46107;53.356;-1.524;2023-07-13T07:23:28;12;11;
60245;PMS5003;46107;53.356;-1.524;2023-07-13T07:25:56;14;13;
60245;PMS5003;46107;53.356;-1.524;2023-07-13T07:28:23;10;10;
60245;PMS5003;46107;53.356;-1.524;2023-07-13T07:30:52;10;9;
60245;PMS5003;46107;53.356;-1.524;2023-07-13T07:33:21;8;8;
60245;PMS5003;46107;53.356;-1.524;2023-07-13T07:35:49;8;8;
60245;PMS5003;46107;53.356;-1.524;2023-07-13T07:38:17;10;10;
60245;PMS5003;46107;53.356;-1.524;2023-07-13T07:40:45;12;10;
60245;PMS5003;46107;53.356;-1.524;2023-07-13T07:43:14;14;14;
60245;PMS5003;46107;53.356;-1.524;2023-07-13T07:45:41;9;9;
60245;PMS5003;46107;53.356;-1.524;2023-07-13T07:48:10;13;11;
60245;PMS5003;46107;53.356;-1.524;2023-07-13T07:50:38;10;9;
60245;PMS5003;46107;53.356;-1.524;2023-07-13T07:53:05;7;6;
60245;PMS5003;46107;53.356;-1.524;2023-07-13T07:55:34;9;9;
60245;PMS5003;46107;53.356;-1.524;2023-07-13T07:58:02;11;11;
60245;PMS5003;46107;53.356;-1.524;2023-07-13T08:00:30;9;9;
60245;PMS5003;46107;53.356;-1.524;2023-07-13T08:02:57;13;10;
60245;PMS5003;46107;53.356;-1.524;2023-07-13T08:05:25;8;8;
60245;PMS5003;46107;53.356;-1.524;2023-07-13T08:07:53;8;8;
60245;PMS5003;46107;53.356;-1.524;2023-07-13T08:10:20;10;8;
60245;PMS5003;46107;53.356;-1.524;2023-07-13T08:12:48;10;10;
60245;PMS5003;46107;53.356;-1.524;2023-07-13T08:15:16;10;8;
60245;PMS5003;46107;53.356;-1.524;2023-07-13T08:17:44;12;9;
60245;PMS5003;46107;53.356;-1.524;2023-07-13T08:20:12;8;8;
60245;PMS5003;46107;53.356;-1.524;2023-07-13T08:22:40;9;9;
60245;PMS5003;46107;53.356;-1.524;2023-07-13T08:25:07;7;7;
60245;PMS5003;46107;53.356;-1.524;2023-07-13T08:27:34;7;5;
60245;PMS5003;46107;53.356;-1.524;2023-07-13T08:30:02;8;6;
60245;PMS5003;46107;53.356;-1.524;2023-07-13T08:32:30;7;7;
60245;PMS5003;46107;53.356;-1.524;2023-07-13T08:34:58;7;7;
60245;PMS5003;46107;53.356;-1.524;2023-07-13T08:37:26;9;9;
60245;PMS5003;46107;53.356;-1.524;2023-07-13T08:39:53;5;5;
60245;PMS5003;46107;53.356;-1.524;2023-07-13T08:42:26;7;5;
60245;PMS5003;46107;53.356;-1.524;2023-07-13T08:45:06;6;6;
60245;PMS5003;46107;53.356;-1.524;2023-07-13T08:47:41;3;3;
60245;PMS5003;46107;53.356;-1.524;2023-07-13T08:50:14;5;4;
60245;PMS5003;46107;53.356;-1.524;2023-07-13T08:52:46;6;4;
60245;PMS5003;46107;53.356;-1.524;2023-07-13T08:55:15;6;5;
60245;PMS5003;46107;53.356;-1.524;2023-07-13T08:57:46;5;5;
60245;PMS5003;46107;53.356;-1.524;2023-07-13T09:00:23;4;4;
60245;PMS5003;46107;53.356;-1.524;2023-07-13T09:03:00;6;6;
60245;PMS5003;46107;53.356;-1.524;2023-07-13T09:05:29;7;5;
60245;PMS5003;46107;53.356;-1.524;2023-07-13T09:08:10;4;4;
60245;PMS5003;46107;53.356;-1.524;2023-07-13T09:10:49;7;6;
60245;PMS5003;46107;53.356;-1.524;2023-07-13T09:13:22;5;5;
60245;PMS5003;46107;53.356;-1.524;2023-07-13T09:15:55;7;6;
60245;PMS5003;46107;53.356;-1.524;2023-07-13T09:18:26;5;5;
60245;PMS5003;46107;53.356;-1.524;2023-07-13T09:20:59;5;5;
60245;PMS5003;46107;53.356;-1.524;2023-07-13T09:23:31;5;5;
60245;PMS5003;46107;53.356;-1.524;2023-07-13T09:26:00;7;7;
60245;PMS5003;46107;53.356;-1.524;2023-07-13T09:28:34;9;7;
60245;PMS5003;46107;53.356;-1.524;2023-07-13T09:31:06;6;6;
60245;PMS5003;46107;53.356;-1.524;2023-07-13T09:33:37;8;7;
60245;PMS5003;46107;53.356;-1.524;2023-07-13T09:36:11;6;6;
60245;PMS5003;46107;53.356;-1.524;2023-07-13T09:38:47;6;6;
60245;PMS5003;46107;53.356;-1.524;2023-07-13T09:41:19;7;6;
60245;PMS5003;46107;53.356;-1.524;2023-07-13T09:44:06;8;8;
60245;PMS5003;46107;53.356;-1.524;2023-07-13T09:46:35;6;5;
60245;PMS5003;46107;53.356;-1.524;2023-07-13T09:49:03;4;4;
60245;PMS5003;46107;53.356;-1.524;2023-07-13T09:51:30;5;5;
60245;PMS5003;46107;53.356;-1.524;2023-07-13T09:53:58;5;5;
60245;PMS5003;46107;53.356;-1.524;2023-07-13T09:56:26;6;5;
60245;PMS5003;46107;53.356;-1.524;2023-07-13T09:58:55;7;7;
60245;PMS5003;46107;53.356;-1.524;2023-07-13T10:01:33;6;6;
60245;PMS5003;46107;53.356;-1.524;2023-07-13T10:04:02;7;7;
60245;PMS5003;46107;53.356;-1.524;2023-07-13T10:06:38;7;7;
60245;PMS5003;46107;53.356;-1.524;2023-07-13T10:09:07;10;8;
60245;PMS5003;46107;53.356;-1.524;2023-07-13T10:11:35;8;8;
60245;PMS5003;46107;53.356;-1.524;2023-07-13T10:14:09;9;9;
60245;PMS5003;46107;53.356;-1.524;2023-07-13T10:16:41;10;9;
60245;PMS5003;46107;53.356;-1.524;2023-07-13T10:19:12;9;9;
60245;PMS5003;46107;53.356;-1.524;2023-07-13T10:21:46;9;8;
60245;PMS5003;46107;53.356;-1.524;2023-07-13T10:24:20;8;8;
60245;PMS5003;46107;53.356;-1.524;2023-07-13T10:26:52;11;11;
60245;PMS5003;46107;53.356;-1.524;2023-07-13T10:29:25;11;11;
60245;PMS5003;46107;53.356;-1.524;2023-07-13T10:31:56;9;9;
60245;PMS5003;46107;53.356;-1.524;2023-07-13T10:34:23;8;7;
60245;PMS5003;46107;53.356;-1.524;2023-07-13T10:36:52;10;10;
60245;PMS5003;46107;53.356;-1.524;2023-07-13T10:39:20;8;6;
60245;PMS5003;46107;53.356;-1.524;2023-07-13T10:41:52;9;9;
60245;PMS5003;46107;53.356;-1.524;2023-07-13T10:44:26;10;10;
60245;PMS5003;46107;53.356;-1.524;2023-07-13T10:46:58;7;7;
60245;PMS5003;46107;53.356;-1.524;2023-07-13T10:49:29;8;8;
60245;PMS5003;46107;53.356;-1.524;2023-07-13T10:51:59;9;9;
60245;PMS5003;46107;53.356;-1.524;2023-07-13T10:54:27;7;7;
60245;PMS5003;46107;53.356;-1.524;2023-07-13T10:57:07;8;8;
60245;PMS5003;46107;53.356;-1.524;2023-07-13T10:59:43;6;6;
60245;PMS5003;46107;53.356;-1.524;2023-07-13T11:02:16;5;5;
60245;PMS5003;46107;53.356;-1.524;2023-07-13T11:04:52;4;4;
60245;PMS5003;46107;53.356;-1.524;2023-07-13T11:07:23;6;5;
60245;PMS5003;46107;53.356;-1.524;2023-07-13T11:09:52;7;5;
60245;PMS5003;46107;53.356;-1.524;2023-07-13T11:12:49;3;3;
60245;PMS5003;46107;53.356;-1.524;2023-07-13T11:15:27;4;4;
60245;PMS5003;46107;53.356;-1.524;2023-07-13T11:18:02;4;4;
60245;PMS5003;46107;53.356;-1.524;2023-07-13T11:20:33;3;3;
60245;PMS5003;46107;53.356;-1.524;2023-07-13T11:23:08;3;3;
60245;PMS5003;46107;53.356;-1.524;2023-07-13T11:25:44;4;4;
60245;PMS5003;46107;53.356;-1.524;2023-07-13T11:28:15;6;6;
60245;PMS5003;46107;53.356;-1.524;2023-07-13T11:30:47;4;4;
60245;PMS5003;46107;53.356;-1.524;2023-07-13T11:33:17;4;4;
60245;PMS5003;46107;53.356;-1.524;2023-07-13T11:35:51;4;4;
60245;PMS5003;46107;53.356;-1.524;2023-07-13T11:38:28;3;3;
60245;PMS5003;46107;53.356;-1.524;2023-07-13T11:41:00;3;3;
60245;PMS5003;46107;53.356;-1.524;2023-07-13T11:43:31;4;4;
60245;PMS5003;46107;53.356;-1.524;2023-07-13T11:45:58;4;4;
60245;PMS5003;46107;53.356;-1.524;2023-07-13T11:48:38;3;3;
60245;PMS5003;46107;53.356;-1.524;2023-07-13T11:51:05;2;2;
60245;PMS5003;46107;53.356;-1.524;2023-07-13T11:53:44;4;4;
60245;PMS5003;46107;53.356;-1.524;2023-07-13T11:56:14;4;3;
60245;PMS5003;46107;53.356;-1.524;2023-07-13T11:58:42;4;4;
60245;PMS5003;46107;53.356;-1.524;2023-07-13T12:01:18;5;5;
60245;PMS5003;46107;53.356;-1.524;2023-07-13T12:03:49;3;3;
60245;PMS5003;46107;53.356;-1.524;2023-07-13T12:06:21;3;3;
60245;PMS5003;46107;53.356;-1.524;2023-07-13T12:08:55;2;2;
60245;PMS5003;46107;53.356;-1.524;2023-07-13T12:11:23;5;5;
60245;PMS5003;46107;53.356;-1.524;2023-07-13T12:13:50;4;4;
60245;PMS5003;46107;53.356;-1.524;2023-07-13T12:16:21;3;3;
60245;PMS5003;46107;53.356;-1.524;2023-07-13T12:18:53;4;3;
60245;PMS5003;46107;53.356;-1.524;2023-07-13T12:21:24;2;2;
60245;PMS5003;46107;53.356;-1.524;2023-07-13T12:23:56;5;4;
60245;PMS5003;46107;53.356;-1.524;2023-07-13T12:26:24;4;4;
60245;PMS5003;46107;53.356;-1.524;2023-07-13T12:28:54;5;5;
60245;PMS5003;46107;53.356;-1.524;2023-07-13T12:31:24;3;3;
60245;PMS5003;46107;53.356;-1.524;2023-07-13T12:33:57;3;3;
60245;PMS5003;46107;53.356;-1.524;2023-07-13T12:36:26;4;4;
60245;PMS5003;46107;53.356;-1.524;2023-07-13T12:38:59;2;2;
60245;PMS5003;46107;53.356;-1.524;2023-07-13T12:41:31;6;6;
60245;PMS5003;46107;53.356;-1.524;2023-07-13T12:43:59;3;2;
60245;PMS5003;46107;53.356;-1.524;2023-07-13T12:46:27;4;4;
60245;PMS5003;46107;53.356;-1.524;2023-07-13T12:48:56;3;3;
60245;PMS5003;46107;53.356;-1.524;2023-07-13T12:51:24;6;6;
60245;PMS5003;46107;53.356;-1.524;2023-07-13T12:53:55;2;2;
60245;PMS5003;46107;53.356;-1.524;2023-07-13T12:56:24;3;3;
60245;PMS5003;46107;53.356;-1.524;2023-07-13T12:59:01;5;5;
60245;PMS5003;46107;53.356;-1.524;2023-07-13T13:01:32;4;4;
60245;PMS5003;46107;53.356;-1.524;2023-07-13T13:04:02;3;3;
60245;PMS5003;46107;53.356;-1.524;2023-07-13T13:06:30;5;5;
60245;PMS5003;46107;53.356;-1.524;2023-07-13T13:08:59;5;5;
60245;PMS5003;46107;53.356;-1.524;2023-07-13T13:11:27;3;3;
60245;PMS5003;46107;53.356;-1.524;2023-07-13T13:13:56;3;3;
60245;PMS5003;46107;53.356;-1.524;2023-07-13T13:16:29;3;3;
60245;PMS5003;46107;53.356;-1.524;2023-07-13T13:19:00;3;3;
60245;PMS5003;46107;53.356;-1.524;2023-07-13T13:21:38;6;5;
60245;PMS5003;46107;53.356;-1.524;2023-07-13T13:24:09;5;3;
60245;PMS5003;46107;53.356;-1.524;2023-07-13T13:26:38;6;4;
60245;PMS5003;46107;53.356;-1.524;2023-07-13T13:29:09;2;2;
60245;PMS5003;46107;53.356;-1.524;2023-07-13T13:31:40;3;3;
60245;PMS5003;46107;53.356;-1.524;2023-07-13T13:34:08;4;4;
60245;PMS5003;46107;53.356;-1.524;2023-07-13T13:36:37;5;5;
60245;PMS5003;46107;53.356;-1.524;2023-07-13T13:39:08;3;3;
60245;PMS5003;46107;53.356;-1.524;2023-07-13T13:41:45;4;4;
60245;PMS5003;46107;53.356;-1.524;2023-07-13T13:44:13;4;4;
60245;PMS5003;46107;53.356;-1.524;2023-07-13T13:46:42;5;5;
60245;PMS5003;46107;53.356;-1.524;2023-07-13T13:49:12;7;4;
60245;PMS5003;46107;53.356;-1.524;2023-07-13T13:51:42;3;3;
60245;PMS5003;46107;53.356;-1.524;2023-07-13T13:54:11;5;4;
60245;PMS5003;46107;53.356;-1.524;2023-07-13T13:56:41;4;4;
60245;PMS5003;46107;53.356;-1.524;2023-07-13T13:59:09;6;5;
60245;PMS5003;46107;53.356;-1.524;2023-07-13T14:01:37;7;6;
60245;PMS5003;46107;53.356;-1.524;2023-07-13T14:04:05;7;4;
60245;PMS5003;46107;53.356;-1.524;2023-07-13T14:06:35;4;4;
60245;PMS5003;46107;53.356;-1.524;2023-07-13T14:09:04;7;5;
60245;PMS5003;46107;53.356;-1.524;2023-07-13T14:11:35;4;4;
60245;PMS5003;46107;53.356;-1.524;2023-07-13T14:14:09;5;4;
60245;PMS5003;46107;53.356;-1.524;2023-07-13T14:16:42;5;5;
60245;PMS5003;46107;53.356;-1.524;2023-07-13T14:19:11;5;4;
60245;PMS5003;46107;53.356;-1.524;2023-07-13T14:21:40;4;4;
60245;PMS5003;46107;53.356;-1.524;2023-07-13T14:24:08;5;5;
60245;PMS5003;46107;53.356;-1.524;2023-07-13T14:26:36;5;4;
60245;PMS5003;46107;53.356;-1.524;2023-07-13T14:29:10;3;3;
60245;PMS5003;46107;53.356;-1.524;2023-07-13T14:31:39;3;3;
60245;PMS5003;46107;53.356;-1.524;2023-07-13T14:34:07;4;4;
60245;PMS5003;46107;53.356;-1.524;2023-07-13T14:36:38;7;4;
60245;PMS5003;46107;53.356;-1.524;2023-07-13T14:39:11;5;4;
60245;PMS5003;46107;53.356;-1.524;2023-07-13T14:41:41;2;2;
60245;PMS5003;46107;53.356;-1.524;2023-07-13T14:44:11;4;3;
60245;PMS5003;46107;53.356;-1.524;2023-07-13T14:46:39;5;5;
60245;PMS5003;46107;53.356;-1.524;2023-07-13T14:49:11;4;4;
60245;PMS5003;46107;53.356;-1.524;2023-07-13T14:51:46;4;4;
60245;PMS5003;46107;53.356;-1.524;2023-07-13T14:54:14;3;2;
60245;PMS5003;46107;53.356;-1.524;2023-07-13T14:56:42;3;3;
60245;PMS5003;46107;53.356;-1.524;2023-07-13T14:59:10;4;4;
60245;PMS5003;46107;53.356;-1.524;2023-07-13T15:01:38;3;3;
60245;PMS5003;46107;53.356;-1.524;2023-07-13T15:04:06;3;3;
60245;PMS5003;46107;53.356;-1.524;2023-07-13T15:06:52;3;3;
60245;PMS5003;46107;53.356;-1.524;2023-07-13T15:09:21;3;2;
60245;PMS5003;46107;53.356;-1.524;2023-07-13T15:11:48;3;3;
60245;PMS5003;46107;53.356;-1.524;2023-07-13T15:14:16;3;3;
60245;PMS5003;46107;53.356;-1.524;2023-07-13T15:16:43;5;5;
60245;PMS5003;46107;53.356;-1.524;2023-07-13T15:19:13;5;4;
60245;PMS5003;46107;53.356;-1.524;2023-07-13T15:21:41;5;5;
60245;PMS5003;46107;53.356;-1.524;2023-07-13T15:24:09;9;6;
60245;PMS5003;46107;53.356;-1.524;2023-07-13T15:26:37;6;5;
60245;PMS5003;46107;53.356;-1.524;2023-07-13T15:29:05;4;4;
60245;PMS5003;46107;53.356;-1.524;2023-07-13T15:31:33;6;5;
60245;PMS5003;46107;53.356;-1.524;2023-07-13T15:34:03;4;4;
60245;PMS5003;46107;53.356;-1.524;2023-07-13T15:36:37;4;4;
60245;PMS5003;46107;53.356;-1.524;2023-07-13T15:39:05;2;2;
60245;PMS5003;46107;53.356;-1.524;2023-07-13T15:41:33;4;3;
60245;PMS5003;46107;53.356;-1.524;2023-07-13T15:44:04;3;3;
60245;PMS5003;46107;53.356;-1.524;2023-07-13T15:46:47;5;4;
60245;PMS5003;46107;53.356;-1.524;2023-07-13T15:49:15;6;5;
60245;PMS5003;46107;53.356;-1.524;2023-07-13T15:51:43;3;3;
60245;PMS5003;46107;53.356;-1.524;2023-07-13T15:54:12;4;4;
60245;PMS5003;46107;53.356;-1.524;2023-07-13T15:56:42;4;3;
60245;PMS5003;46107;53.356;-1.524;2023-07-13T15:59:10;4;4;
60245;PMS5003;46107;53.356;-1.524;2023-07-13T16:01:38;4;3;
60245;PMS5003;46107;53.356;-1.524;2023-07-13T16:04:06;4;4;
60245;PMS5003;46107;53.356;-1.524;2023-07-13T16:06:34;3;3;
60245;PMS5003;46107;53.356;-1.524;2023-07-13T16:09:03;3;3;
60245;PMS5003;46107;53.356;-1.524;2023-07-13T16:11:33;2;2;
60245;PMS5003;46107;53.356;-1.524;2023-07-13T16:14:02;3;3;
60245;PMS5003;46107;53.356;-1.524;2023-07-13T16:16:31;4;4;
60245;PMS5003;46107;53.356;-1.524;2023-07-13T16:19:02;5;5;
60245;PMS5003;46107;53.356;-1.524;2023-07-13T16:21:32;3;3;
60245;PMS5003;46107;53.356;-1.524;2023-07-13T16:24:03;3;2;
60245;PMS5003;46107;53.356;-1.524;2023-07-13T16:26:32;4;4;
60245;PMS5003;46107;53.356;-1.524;2023-07-13T16:29:02;5;5;
60245;PMS5003;46107;53.356;-1.524;2023-07-13T16:31:30;7;7;
60245;PMS5003;46107;53.356;-1.524;2023-07-13T16:33:58;7;5;
60245;PMS5003;46107;53.356;-1.524;2023-07-13T16:36:26;3;3;
60245;PMS5003;46107;53.356;-1.524;2023-07-13T16:38:55;7;4;